Nearby METAR (Airport) Reports

 

KPRN - Greenville, Alabama, USA
Distance from station: WNW 17mi, 28km
Updated: Sat, 17-Aug-2019 11:56am CDT
Clear
Clear
 Wind from W
Wind: W 7 mph , 11 km/h
Temperature: 97°F , 36°C
Dew Point: 55°F , 13°C
Humidity: 25%
Barometer: 30.00 inHg , 1015.9 hPa
Clouds: Clear
Visibility: 10 miles , 16 km
2019/08/17 16:56 KPRN 171656Z AUTO 28006KT 10SM CLR 36/13 A3000 RMK AO2 SLP150 T03610133
KTOI - Troy, Alabama, USA
Distance from station: ENE 21mi, 34km
Updated: Sat, 17-Aug-2019 11:53am CDT
Clear
Clear
 Wind from WSW
Wind: WSW 6 mph , 9 km/h
Temperature: 93°F , 34°C
Dew Point: 63°F , 17°C
Humidity: 36%
Barometer: 30.01 inHg , 1016.3 hPa
Clouds: Clear
Visibility: 10 miles , 16 km
2019/08/17 16:53 KTOI 171653Z AUTO 24005KT 10SM CLR 34/17 A3001 RMK AO2 SLP155 T03440172
K79J - Andalusia/Opp Ar, Alabama, USA
Distance from station: S 29mi, 47km
Updated: Sat, 17-Aug-2019 11:56am CDT

 Wind from NE
Wind: NE 3 mph , 6 km/h
Temperature: 95°F , 35°C
Dew Point: 66°F , 19°C
Humidity: 39%
Barometer: 30.00 inHg , 1015.9 hPa
Visibility: 10 miles , 16 km
2019/08/17 16:56 K79J 171656Z AUTO 05003KT 10SM 35/19 A3000 RMK AO2 SLP152 T03500194 $
 
KMGM - Montgomery, Alabama, USA
Distance from station: N 39mi, 63km
Updated: Sat, 17-Aug-2019 11:53am CDT
Clear
Clear
 Wind from calm
Wind: Calm
Temperature: 95°F , 35°C
Dew Point: 63°F , 17°C
Humidity: 34%
Barometer: 29.99 inHg , 1015.6 hPa
Clouds: Clear
Visibility: 10 miles , 16 km
2019/08/17 16:53 KMGM 171653Z 00000KT 10SM CLR 35/17 A2999 RMK AO2 SLP154 T03500167
KMXF - Maxwell Afb/Mgm, Alabama, USA
Distance from station: N 44mi, 70km
Updated: Sat, 17-Aug-2019 11:56am CDT
Clear
Clear
 Wind from calm
Wind: Calm
Temperature: 93°F , 34°C
Heat Index: 96°F , 36°C
Dew Point: 66°F , 19°C
Humidity: 41%
Barometer: 29.99 inHg , 1015.6 hPa
Clouds: Clear
Visibility: 10 miles , 16 km
2019/08/17 16:56 KMXF 171656Z AUTO 00000KT 10SM CLR 34/19 A2999 RMK AO2 SLP157 T03440188
KLOR - Lowe Ahp/Ft. Ruc, Alabama, USA
Distance from station: SE 44mi, 71km
Updated: Sat, 17-Aug-2019 11:58am CDT
Mostly cloudy
Mostly cloudy
 Wind from NW
Wind: NW 7 mph , 11 km/h
Temperature: 93°F , 34°C
Heat Index: 99°F , 37°C
Dew Point: 70°F , 21°C
Humidity: 47%
Barometer: 29.99 inHg , 1015.6 hPa
Clouds: Mostly cloudy
Visibility: 10 miles , 16 km
Cloud details: Mostly cloudy 5500 ft
Mostly cloudy 8000 ft
2019/08/17 16:58 KLOR 171658Z AUTO 31006KT 10SM BKN055 BKN080 34/21 A2999 RMK AO2 SLP136 T03410206
 
KGZH - Evergreen, Alabama, USA
Distance from station: WSW 46mi, 75km
Updated: Sat, 17-Aug-2019 11:53am CDT
Clear
Clear
 Wind from varies
Wind: varies 3 mph , 6 km/h
Temperature: 97°F , 36°C
Dew Point: 61°F , 16°C
Humidity: 30%
Barometer: 29.99 inHg , 1015.6 hPa
Clouds: Clear
Visibility: 10 miles , 16 km
2019/08/17 16:53 KGZH 171653Z AUTO VRB03KT 10SM CLR 36/16 A2999 RMK AO2 SLP153 T03610161 TSNO
K0J4 - Florala Muni, Alabama, USA
Distance from station: S 47mi, 76km
Updated: Sat, 17-Aug-2019 11:58am CDT
Few Clouds
Few Clouds
 Wind from ESE
Wind: ESE 6 mph , 9 km/h
Temperature: 93°F , 34°C
Heat Index: 99°F , 37°C
Dew Point: 70°F , 21°C
Humidity: 47%
Barometer: 30.00 inHg , 1015.9 hPa
Clouds: Few Clouds
Visibility: 10 miles , 16 km
Cloud details: Few Clouds 6500 ft
2019/08/17 16:58 K0J4 171658Z AUTO 12005KT 10SM FEW065 34/21 A3000 RMK AO2 SLP155 T03440211
KOZR - Ozark/Cairns Aaf, Alabama, USA
Distance from station: SE 49mi, 78km
Updated: Sat, 17-Aug-2019 11:56am CDT
Few Clouds
Few Clouds
 Wind from S
Wind: S 3 mph , 6 km/h
Temperature: 93°F , 34°C
Heat Index: 100°F , 38°C
Dew Point: 72°F , 22°C
Humidity: 49%
Barometer: 29.99 inHg , 1015.6 hPa
Clouds: Few Clouds
Visibility: 10 miles , 16 km
Cloud details: Few Clouds 14000 ft
Few Clouds 17000 ft
Few Clouds 21000 ft
2019/08/17 16:56 KOZR 171656Z AUTO 19003KT 10SM FEW140 FEW170 FEW210 34/22 A2999 RMK AO2 SLP154 T03390216 $
 
KHEY - Ft Rucker/Hanche, Alabama, USA
Distance from station: ESE 49mi, 79km
Updated: Sat, 17-Aug-2019 11:58am CDT
Mostly cloudy
Mostly cloudy
 Wind from NW
Wind: NW 6 mph , 9 km/h
Temperature: 95°F , 35°C
Dew Point: 64°F , 18°C
Humidity: 36%
Barometer: 29.98 inHg , 1015.2 hPa
Clouds: Mostly cloudy
Visibility: 10 miles , 16 km
Cloud details: Mostly cloudy 6000 ft
2019/08/17 16:58 KHEY 171658Z AUTO 31005KT 10SM BKN060 35/18 A2998 RMK AO2 SLP151 T03480180
KDHN - Dothan, Alabama, USA
Distance from station: ESE 61mi, 97km
Updated: Sat, 17-Aug-2019 11:53am CDT
Clear
Clear
 Wind from NW
Wind: NW 3 mph , 6 km/h
Temperature: 97°F , 36°C
Dew Point: 64°F , 18°C
Humidity: 34%
Barometer: 30.03 inHg , 1016.9 hPa
Clouds: Clear
Visibility: 10 miles , 16 km
2019/08/17 16:53 KDHN 171653Z 32003KT 10SM CLR 36/18 A3003 RMK AO2 SLP161 T03560183
KCEW - Crestview, Florida, USA
Distance from station: S 66mi, 107km
Updated: Sat, 17-Aug-2019 11:53am CDT
Few Clouds
Few Clouds
 Wind from varies
Wind: varies 3 mph , 6 km/h
Temperature: 93°F , 34°C
Heat Index: 100°F , 38°C
Dew Point: 72°F , 22°C
Humidity: 49%
Barometer: 30.00 inHg , 1015.9 hPa
Clouds: Few Clouds
Visibility: 10 miles , 16 km
Cloud details: Few Clouds 6000 ft
2019/08/17 16:53 KCEW 171653Z AUTO VRB03KT 10SM FEW060 34/22 A3000 RMK AO2 SLP154 T03440222
 
KEUF - Eufaula, Alabama, USA
Distance from station: ENE 73mi, 118km
Updated: Mon, 04-Mar-2019 12:58pm CST
NOT Current

 
Barometer: 30.10 inHg , 1019.3 hPa
2019/03/04 18:58 KEUF 041858Z AUTO A3010 RMK AO2 RAEMM TSB02B32 SLPNO PWINO FZRANO TSNO $
KJKA - Gulf Shores, Alabama, USA
Distance from station: SSW 132mi, 212km
Updated: Sat, 17-Aug-2019 12:15pm CDT
Mostly cloudy
Mostly cloudy
 Wind from NW
Wind: NW 5 mph , 7 km/h
Temperature: 91°F , 33°C
Heat Index: 104°F , 40°C
Dew Point: 77°F , 25°C
Humidity: 63%
Barometer: 29.98 inHg , 1015.2 hPa
Clouds: Mostly cloudy
Visibility: 10 miles , 16 km
Cloud details: Mostly cloudy 3300 ft
Mostly cloudy 4000 ft
2019/08/17 17:15 KJKA 171715Z AUTO 31004KT 10SM BKN033 BKN040 33/25 A2998 RMK AO2 T03300245
KLSF - Ft Benning/Colum, Georgia, USA
Distance from station: SNE 89mi, 143km
Updated: Sat, 17-Aug-2019 11:56am CDT
Clear
Clear
 Wind from W
Wind: W 8 mph , 13 km/h
Temperature: 97°F , 36°C
Dew Point: 64°F , 18°C
Humidity: 34%
Barometer: 29.97 inHg , 1014.9 hPa
Clouds: Clear
Visibility: 10 miles , 16 km
2019/08/17 16:56 KLSF 171656Z AUTO 27007KT 10SM CLR 36/18 A2997 RMK AO2 SLP151 T03550176 $
 
KMOB - Mobile/Bates, Alabama, USA
Distance from station: SW 125mi, 202km
Updated: Sat, 17-Aug-2019 11:56am CDT
Mostly cloudy
Mostly cloudy
 Wind from varies
Wind: varies 3 mph , 6 km/h
Temperature: 93°F , 34°C
Heat Index: 103°F , 39°C
Dew Point: 73°F , 23°C
Humidity: 53%
Barometer: 29.99 inHg , 1015.6 hPa
Clouds: Mostly cloudy
Visibility: 7 miles , 11 km
Cloud details: Partly cloudy 5000 ft
Partly cloudy 15000 ft
Mostly cloudy 25000 ft
2019/08/17 16:56 KMOB 171656Z VRB03KT 7SM SCT050 SCT150 BKN250 34/23 A2999 RMK AO2 SLP152 T03440233
KNMM - Meridian Nas, Mississippi, USA
Distance from station: WNW 151mi, 243km
Updated: Sat, 17-Aug-2019 11:56am CDT
Clear
Clear
 Wind from N
Wind: N 8 mph , 13 km/h
Temperature: 95°F , 35°C
Dew Point: 63°F , 17°C
Humidity: 34%
Barometer: 30.01 inHg , 1016.3 hPa
Clouds: Clear
Visibility: 10 miles , 16 km
2019/08/17 16:56 KNMM 171656Z AUTO 01007KT 10SM CLR 35/17 A3001 RMK AO2 SLP167 T03500167 $
KQHY - Hurlbert (Ft Walton Bch), Florida, USA
Distance from station: S 94mi, 151km
Updated: Mon, 05-Aug-2019 3:56pm CDT
NOT Current
Few Clouds
Few Clouds
 Wind from SW
Wind: SW 6 mph , 9 km/h
Temperature: 82°F , 28°C
Heat Index: 89°F , 32°C
Dew Point: 75°F , 24°C
Humidity: 79%
Barometer: 29.95 inHg , 1014.2 hPa
Clouds: Few Clouds
Visibility: 10 miles , 16 km
Cloud details: Few Clouds 1400 ft
2019/08/05 20:56 KQHY 052056Z AUTO 23005KT 10SM FEW014 28/24 A2995 RMK AO2 LTG DSNT S AND W SLP148 60008 T02830239 57018 $
 
KTCL - Tuscaloosa, Alabama, USA
Distance from station: NNW 129mi, 207km
Updated: Sat, 17-Aug-2019 11:53am CDT
Clear
Clear
 Wind from calm
Wind: Calm
Temperature: 93°F , 34°C
Dew Point: 64°F , 18°C
Humidity: 39%
Barometer: 30.00 inHg , 1015.9 hPa
Clouds: Clear
Visibility: 10 miles , 16 km
2019/08/17 16:53 KTCL 171653Z 00000KT 10SM CLR 34/18 A3000 RMK AO2 SLP156 T03440178
KECP - Panama City, Florida, USA
Distance from station: SSE 122mi, 196km
Updated: Sat, 17-Aug-2019 11:53am CDT
Partly cloudy
Partly cloudy
 Wind from SSE
Wind: SSE 12 mph , 19 km/h
Temperature: 91°F , 33°C
Heat Index: 102°F , 39°C
Dew Point: 75°F , 24°C
Humidity: 59%
Barometer: 29.98 inHg , 1015.2 hPa
Clouds: Partly cloudy
Visibility: 10 miles , 16 km
Cloud details: Partly cloudy 3000 ft
2019/08/17 16:53 KECP 171653Z 15010KT 10SM SCT030 33/24 A2998 RMK AO2 SLP164 T03280244
KCBM - Columbus Afb, Mississippi, USA
Distance from station: NW 175mi, 282km
Updated: Sat, 17-Aug-2019 11:56am CDT
Clear
Clear
 Wind from calm
Wind: Calm
Temperature: 90°F , 32°C
Heat Index: 93°F , 34°C
Dew Point: 66°F , 19°C
Humidity: 46%
Barometer: 30.00 inHg , 1015.9 hPa
Clouds: Clear
Visibility: 10 miles , 16 km
2019/08/17 16:56 KCBM 171656Z AUTO 00000KT 10SM CLR 32/19 A3000 RMK AO2 SLP160 T03210186
 
KBHM - Birmingham, Alabama, USA
Distance from station: N 132mi, 212km
Updated: Sat, 17-Aug-2019 11:53am CDT
Few Clouds
Few Clouds
 Wind from varies
Wind: varies 3 mph , 6 km/h
Temperature: 97°F , 36°C
Dew Point: 57°F , 14°C
Humidity: 27%
Barometer: 30.04 inHg , 1017.3 hPa
Clouds: Few Clouds
Visibility: 10 miles , 16 km
Cloud details: Few Clouds 25000 ft
2019/08/17 16:53 KBHM 171653Z VRB03KT 10SM FEW250 36/14 A3004 RMK AO2 SLP162 T03560144
KAAF - Apalachicola, Florida, USA
Distance from station: SSE 156mi, 250km
Updated: Sat, 17-Aug-2019 11:53am CDT
Mostly cloudy
Mostly cloudy
 Wind from SSW
Wind: SSW 12 mph , 19 km/h, Gust: 25 mph , 41 km/h
Temperature: 84°F , 29°C
Heat Index: 92°F , 33°C
Dew Point: 75°F , 24°C
Humidity: 74%
Barometer: 30.02 inHg , 1016.6 hPa
Clouds: Mostly cloudy
Visibility: 10 miles , 16 km
Cloud details: Few Clouds 2400 ft
Partly cloudy 3900 ft
Mostly cloudy 9500 ft
2019/08/17 16:53 KAAF 171653Z AUTO 21010G22KT 10SM FEW024 SCT039 BKN095 29/24 A3002 RMK AO2 SLP165 T02940244
KATL - Atlanta, Georgia, USA
Distance from station: NE 177mi, 287km
Updated: Sat, 17-Aug-2019 11:52am CDT
Few Clouds
Few Clouds
 Wind from varies
Wind: varies 7 mph , 11 km/h
Temperature: 93°F , 34°C
Dew Point: 61°F , 16°C
Humidity: 34%
Barometer: 30.04 inHg , 1017.3 hPa
Clouds: Few Clouds
Visibility: 10 miles , 16 km
Cloud details: Few Clouds 7000 ft
Few Clouds 25000 ft
2019/08/17 16:52 KATL 171652Z VRB06KT 10SM FEW070 FEW250 34/16 A3004 RMK AO2 SLP157 T03440156
 
KGPT - Gulfport, Mississippi, USA
Distance from station: SW 192mi, 309km
Updated: Sat, 17-Aug-2019 11:53am CDT
Clear
Clear
 Wind from N
Wind: N 3 mph , 6 km/h
Temperature: 93°F , 34°C
Heat Index: 100°F , 38°C
Dew Point: 72°F , 22°C
Humidity: 49%
Barometer: 29.97 inHg , 1014.9 hPa
Clouds: Clear
Visibility: 10 miles , 16 km
2019/08/17 16:53 KGPT 171653Z 36003KT 10SM CLR 34/22 A2997 RMK AO2 SLP148 T03390222
KNEW - New Orleans/Lake, Louisiana, USA
Distance from station: SW 255mi, 410km
Updated: Sat, 17-Aug-2019 11:53am CDT
Partly cloudy
Partly cloudy
 Wind from NNE
Wind: NNE 7 mph , 11 km/h
Temperature: 91°F , 33°C
Heat Index: 102°F , 39°C
Dew Point: 75°F , 24°C
Humidity: 59%
Barometer: 29.99 inHg , 1015.6 hPa
Clouds: Partly cloudy
Visibility: 9 miles , 14 km
Cloud details: Partly cloudy 2500 ft
2019/08/17 16:53 KNEW 171653Z 02006KT 9SM SCT025 33/24 A2999 RMK AO2 LTG DSNT S AND SW SLP147 T03280244
KP92 - Salt Point, Louisiana, USA
Distance from station: SW 347mi, 559km
Updated: Sat, 17-Aug-2019 11:53am CDT

 
Temperature: 88°F , 31°C
Heat Index: 103°F , 39°C
Dew Point: 79°F , 26°C
Humidity: 75%
Barometer: 29.96 inHg , 1014.6 hPa
2019/08/17 16:53 KP92 171653Z AUTO 31/26 A2996 RMK AO1 SLP145 T03110256 $